createdAt,value
2023-03-11T00:00:42.928Z,59.81
2023-03-11T00:03:18.492Z,60.48
2023-03-11T00:05:51.739Z,60.00
2023-03-11T00:08:25.614Z,59.81
2023-03-11T00:11:01.532Z,60.12
2023-03-11T00:13:33.465Z,59.88
2023-03-11T00:16:05.664Z,60.03
2023-03-11T00:18:37.219Z,59.90
2023-03-11T00:21:16.480Z,59.60
2023-03-11T00:23:48.443Z,59.41
2023-03-11T00:26:21.386Z,59.89
2023-03-11T00:28:53.029Z,59.98
2023-03-11T00:31:26.889Z,59.76
2023-03-11T00:33:58.699Z,60.11
2023-03-11T00:36:32.208Z,59.99
2023-03-11T00:39:08.210Z,59.95
2023-03-11T00:41:39.966Z,59.89
2023-03-11T00:44:13.047Z,59.85
2023-03-11T00:46:44.859Z,59.89
2023-03-11T00:49:16.412Z,60.50
2023-03-11T00:51:48.013Z,60.56
2023-03-11T00:54:19.563Z,60.64
2023-03-11T00:56:51.108Z,61.07
2023-03-11T00:59:22.799Z,60.66
2023-03-11T01:01:54.639Z,61.13
2023-03-11T01:04:27.390Z,61.09
2023-03-11T01:06:59.161Z,61.52
2023-03-11T01:09:30.656Z,61.79
2023-03-11T01:12:03.320Z,61.41
2023-03-11T01:14:36.399Z,61.25
2023-03-11T01:17:09.522Z,61.62
2023-03-11T01:19:41.155Z,61.91
2023-03-11T01:22:12.857Z,62.23
2023-03-11T01:24:44.545Z,62.13
2023-03-11T01:27:16.295Z,62.21
2023-03-11T01:29:47.815Z,62.32
2023-03-11T01:32:19.933Z,62.02
2023-03-11T01:34:51.444Z,62.04
2023-03-11T01:37:23.310Z,62.74
2023-03-11T01:39:57.616Z,63.01
2023-03-11T01:42:30.789Z,62.89
2023-03-11T01:45:02.327Z,63.09
2023-03-11T01:47:37.850Z,63.22
2023-03-11T01:50:13.958Z,62.89
2023-03-11T01:52:45.850Z,62.27
2023-03-11T01:55:19.154Z,62.63
2023-03-11T01:57:53.161Z,61.96
2023-03-11T02:00:25.061Z,62.67
2023-03-11T02:03:00.788Z,62.28
2023-03-11T02:05:35.941Z,62.55
2023-03-11T02:08:08.235Z,62.08
2023-03-11T02:10:42.567Z,61.75
2023-03-11T02:13:14.337Z,61.71
2023-03-11T02:15:46.399Z,61.64
2023-03-11T02:18:20.350Z,62.17
2023-03-11T02:21:10.195Z,62.07
2023-03-11T02:23:53.862Z,61.94
2023-03-11T02:26:41.182Z,61.49
2023-03-11T02:29:13.350Z,62.33
2023-03-11T02:31:46.285Z,61.81
2023-03-11T02:34:32.738Z,62.41
2023-03-11T02:37:07.090Z,62.52
2023-03-11T02:39:40.382Z,62.34
2023-03-11T02:42:32.797Z,62.53
2023-03-11T02:45:13.865Z,62.32
2023-03-11T02:47:45.391Z,62.43
2023-03-11T02:50:19.091Z,61.88
2023-03-11T02:52:52.076Z,61.50
2023-03-11T02:55:23.990Z,60.95
2023-03-11T02:57:55.545Z,61.19
2023-03-11T03:00:27.254Z,60.78
2023-03-11T03:02:58.798Z,60.62
2023-03-11T03:05:30.589Z,60.51
2023-03-11T03:08:02.959Z,61.00
2023-03-11T03:10:34.448Z,61.00
2023-03-11T03:13:06.283Z,61.05
2023-03-11T03:15:38.835Z,60.59
2023-03-11T03:18:10.343Z,60.43
2023-03-11T03:20:41.854Z,60.31
2023-03-11T03:23:13.460Z,60.06
2023-03-11T03:25:45.710Z,60.10
2023-03-11T03:28:17.774Z,60.48
2023-03-11T03:30:49.281Z,60.38
2023-03-11T03:33:20.784Z,60.77
2023-03-11T03:35:52.320Z,61.00
2023-03-11T03:38:23.998Z,61.36
2023-03-11T03:40:55.951Z,60.97
2023-03-11T03:43:27.564Z,60.90
2023-03-11T03:46:01.895Z,61.17
2023-03-11T03:48:33.812Z,61.29
2023-03-11T03:51:13.213Z,60.92
2023-03-11T03:53:46.557Z,60.92
2023-03-11T03:56:18.971Z,60.69
2023-03-11T03:58:50.382Z,60.73
2023-03-11T04:01:22.349Z,61.28
2023-03-11T04:03:53.892Z,60.93
2023-03-11T04:06:26.883Z,61.13
2023-03-11T04:08:58.395Z,61.51
2023-03-11T04:11:29.983Z,61.95
2023-03-11T04:14:02.519Z,61.62
2023-03-11T04:16:34.144Z,61.69
2023-03-11T04:19:08.442Z,61.59
2023-03-11T04:21:40.344Z,61.35
2023-03-11T04:24:11.873Z,61.63
2023-03-11T04:26:43.410Z,61.66
2023-03-11T04:29:17.617Z,61.56
2023-03-11T04:31:49.330Z,61.89
2023-03-11T04:34:20.912Z,61.67
2023-03-11T04:36:54.002Z,61.83
2023-03-11T04:39:25.513Z,62.03
2023-03-11T04:41:57.213Z,62.19
2023-03-11T04:44:28.873Z,62.38
2023-03-11T04:47:00.419Z,62.55
2023-03-11T04:49:31.897Z,62.50
2023-03-11T04:52:03.681Z,62.46
2023-03-11T04:54:35.554Z,62.63
2023-03-11T04:57:07.212Z,62.70
2023-03-11T04:59:38.803Z,62.89
2023-03-11T05:02:12.867Z,62.76
2023-03-11T05:04:45.397Z,62.94
2023-03-11T05:07:16.825Z,62.89
2023-03-11T05:09:48.370Z,63.01
2023-03-11T05:12:20.450Z,63.17
2023-03-11T05:14:52.277Z,63.50
2023-03-11T05:17:24.871Z,63.57
2023-03-11T05:19:57.495Z,63.36
2023-03-11T05:22:29.061Z,63.24
2023-03-11T05:25:00.693Z,64.11
2023-03-11T05:27:33.120Z,63.74
2023-03-11T05:30:04.682Z,64.04
2023-03-11T05:32:36.281Z,63.79
2023-03-11T05:35:08.331Z,63.74
2023-03-11T05:37:41.292Z,62.10
2023-03-11T05:40:12.851Z,62.32
2023-03-11T05:42:45.496Z,62.24
2023-03-11T05:45:17.029Z,62.39
2023-03-11T05:47:48.557Z,61.70
2023-03-11T05:50:20.140Z,62.03
2023-03-11T05:52:51.727Z,61.77
2023-03-11T05:55:23.223Z,61.06
2023-03-11T05:57:54.975Z,60.96
2023-03-11T06:00:29.311Z,60.54
2023-03-11T06:03:00.817Z,61.10
2023-03-11T06:05:32.276Z,59.88
2023-03-11T06:08:03.988Z,59.61
2023-03-11T06:10:35.501Z,59.22
2023-03-11T06:13:07.035Z,59.18
2023-03-11T06:15:38.606Z,59.44
2023-03-11T06:18:10.883Z,59.02
2023-03-11T06:20:42.702Z,59.09
2023-03-11T06:23:14.498Z,58.07
2023-03-11T06:25:58.678Z,58.04
2023-03-11T06:28:30.810Z,57.92
2023-03-11T06:31:15.496Z,57.23
2023-03-11T06:33:48.381Z,56.52
2023-03-11T06:36:20.670Z,56.67
2023-03-11T06:38:53.614Z,56.29
2023-03-11T06:41:25.749Z,56.38
2023-03-11T06:43:59.677Z,56.22
2023-03-11T06:46:31.273Z,56.75
2023-03-11T06:49:03.089Z,56.95
2023-03-11T06:51:34.852Z,56.01
2023-03-11T06:54:07.150Z,56.69
2023-03-11T06:56:38.719Z,56.50
2023-03-11T06:59:10.666Z,56.53
2023-03-11T07:01:42.152Z,56.64
2023-03-11T07:04:13.699Z,56.52
2023-03-11T07:06:45.275Z,57.03
2023-03-11T07:09:17.103Z,57.42
2023-03-11T07:11:48.803Z,57.99
2023-03-11T07:14:20.567Z,58.01
2023-03-11T07:16:52.475Z,58.18
2023-03-11T07:19:24.113Z,58.00
2023-03-11T07:21:55.761Z,57.85
2023-03-11T07:24:28.939Z,58.49
2023-03-11T07:27:00.523Z,58.86
2023-03-11T07:29:32.349Z,59.13
2023-03-11T07:32:04.134Z,59.22
2023-03-11T07:34:36.005Z,59.76
2023-03-11T07:37:07.572Z,59.26
2023-03-11T07:39:39.524Z,59.46
2023-03-11T07:42:11.340Z,60.43
2023-03-11T07:44:42.953Z,60.56
2023-03-11T07:47:14.441Z,60.43
2023-03-11T07:49:46.991Z,59.83
2023-03-11T07:52:18.950Z,59.94
2023-03-11T07:54:50.528Z,59.49
2023-03-11T07:57:22.431Z,59.85
2023-03-11T07:59:53.965Z,59.29
2023-03-11T08:02:25.592Z,58.52
2023-03-11T08:04:57.555Z,59.27
2023-03-11T08:07:31.709Z,58.83
2023-03-11T08:10:04.313Z,58.30
2023-03-11T08:12:37.027Z,57.32
2023-03-11T08:15:09.328Z,58.01
2023-03-11T08:17:40.855Z,57.14
2023-03-11T08:20:12.784Z,56.97
2023-03-11T08:22:57.353Z,56.64
2023-03-11T08:25:30.190Z,56.40
2023-03-11T08:28:01.727Z,56.52
2023-03-11T08:30:34.349Z,54.91
2023-03-11T08:33:06.085Z,54.59
2023-03-11T08:35:37.823Z,53.83
2023-03-11T08:38:09.799Z,53.65
2023-03-11T08:40:41.406Z,53.43
2023-03-11T08:43:13.925Z,52.54
2023-03-11T08:45:45.366Z,52.60
2023-03-11T08:48:17.150Z,52.60
2023-03-11T08:50:54.359Z,52.10
2023-03-11T08:53:26.312Z,51.85
2023-03-11T08:55:57.851Z,52.47
2023-03-11T08:58:30.050Z,52.21
2023-03-11T09:01:01.909Z,52.57
2023-03-11T09:03:35.546Z,52.99
2023-03-11T09:06:11.351Z,53.06
2023-03-11T09:08:43.978Z,53.20
2023-03-11T09:11:17.984Z,53.08
2023-03-11T09:13:49.941Z,52.54
2023-03-11T09:16:23.095Z,51.71
2023-03-11T09:18:55.040Z,52.02
2023-03-11T09:21:26.595Z,52.20
2023-03-11T09:23:58.298Z,52.20
2023-03-11T09:26:31.094Z,51.60
2023-03-11T09:29:02.739Z,51.02
2023-03-11T09:31:34.256Z,49.57
2023-03-11T09:34:06.016Z,50.08
2023-03-11T09:36:37.714Z,48.22
2023-03-11T09:39:09.552Z,48.38
2023-03-11T09:41:57.595Z,47.85
2023-03-11T09:44:40.131Z,48.69
2023-03-11T09:47:38.019Z,47.22
2023-03-11T09:50:16.589Z,47.90
2023-03-11T09:53:11.838Z,46.99
2023-03-11T09:55:45.143Z,46.64
2023-03-11T09:58:39.337Z,46.31
2023-03-11T10:01:20.852Z,45.88
2023-03-11T10:03:56.552Z,47.23
2023-03-11T10:06:31.623Z,46.99
2023-03-11T10:09:40.431Z,47.07
2023-03-11T10:12:20.181Z,47.19
2023-03-11T10:15:06.743Z,46.74
2023-03-11T10:18:16.253Z,48.20
2023-03-11T10:21:06.278Z,46.43
2023-03-11T10:24:05.132Z,46.82
2023-03-11T10:26:41.646Z,45.89
2023-03-11T10:29:18.255Z,44.71
2023-03-11T10:32:10.759Z,45.31
2023-03-11T10:34:54.770Z,43.77
2023-03-11T10:37:48.402Z,43.78
2023-03-11T10:40:33.331Z,43.61
2023-03-11T10:43:12.390Z,43.54
2023-03-11T10:45:46.109Z,43.45
2023-03-11T10:48:19.770Z,43.00
2023-03-11T10:51:18.023Z,42.45
2023-03-11T10:53:54.837Z,41.65
2023-03-11T10:56:35.596Z,42.90
2023-03-11T10:59:30.033Z,40.44
2023-03-11T11:02:04.427Z,39.68
2023-03-11T11:04:39.582Z,40.85
2023-03-11T11:07:35.351Z,41.26
2023-03-11T11:10:16.215Z,43.59
2023-03-11T11:12:59.012Z,43.02
2023-03-11T11:15:40.397Z,42.41
2023-03-11T11:18:14.813Z,41.10
2023-03-11T11:21:04.746Z,41.52
2023-03-11T11:23:39.340Z,42.64
2023-03-11T11:26:25.883Z,42.77
2023-03-11T11:29:09.743Z,42.51
2023-03-11T11:31:44.802Z,42.48
2023-03-11T11:34:40.102Z,41.93
2023-03-11T11:37:13.584Z,42.41
2023-03-11T11:39:54.742Z,41.42
2023-03-11T11:42:31.396Z,42.07
2023-03-11T11:45:12.232Z,41.41
2023-03-11T11:47:48.345Z,40.32
2023-03-11T11:50:41.992Z,40.77
2023-03-11T11:53:29.677Z,40.28
2023-03-11T11:56:03.921Z,38.21
2023-03-11T11:58:37.624Z,39.92
2023-03-11T12:01:51.168Z,40.59
2023-03-11T12:04:45.864Z,39.73
2023-03-11T12:07:31.098Z,39.61
2023-03-11T12:10:28.614Z,40.57
2023-03-11T12:13:18.248Z,40.41
2023-03-11T12:15:59.930Z,41.08
2023-03-11T12:18:57.004Z,41.42
2023-03-11T12:21:45.790Z,39.88
2023-03-11T12:24:50.841Z,40.51
2023-03-11T12:27:32.724Z,39.71
2023-03-11T12:30:14.872Z,39.90
2023-03-11T12:32:52.599Z,39.81
2023-03-11T12:35:28.059Z,39.26
2023-03-11T12:38:17.370Z,39.54
2023-03-11T12:41:06.789Z,38.99
2023-03-11T12:43:38.551Z,38.91
2023-03-11T12:46:11.799Z,38.49
2023-03-11T12:49:08.384Z,39.68
2023-03-11T12:51:41.150Z,39.71
2023-03-11T12:54:32.367Z,38.96
2023-03-11T12:57:34.243Z,39.12
2023-03-11T13:00:18.199Z,39.14
2023-03-11T13:03:11.245Z,38.02
2023-03-11T13:05:57.539Z,37.37
2023-03-11T13:08:54.748Z,36.99
2023-03-11T13:11:32.185Z,37.14
2023-03-11T13:14:16.400Z,35.97
2023-03-11T13:16:48.619Z,33.67
2023-03-11T13:19:26.460Z,29.27
2023-03-11T13:22:00.412Z,29.08
2023-03-11T13:24:34.443Z,27.27
2023-03-11T13:27:20.517Z,24.32
2023-03-11T13:30:02.242Z,21.80
2023-03-11T13:33:05.032Z,21.39
2023-03-11T13:35:54.388Z,19.92
2023-03-11T13:38:57.951Z,20.05
2023-03-11T13:41:36.149Z,18.26
2023-03-11T13:44:19.748Z,19.14
2023-03-11T13:47:03.069Z,18.17
2023-03-11T13:49:40.289Z,17.80
2023-03-11T13:52:18.702Z,17.06
2023-03-11T13:55:02.601Z,15.85
2023-03-11T13:57:36.970Z,16.41
2023-03-11T14:00:18.604Z,15.19
2023-03-11T14:02:56.010Z,14.77
2023-03-11T14:05:31.968Z,16.28
2023-03-11T14:08:34.956Z,16.85
2023-03-11T14:11:12.368Z,16.75
2023-03-11T14:13:50.082Z,16.31
2023-03-11T14:16:36.142Z,15.99
2023-03-11T14:19:29.059Z,17.21
2023-03-11T14:22:00.568Z,16.60
2023-03-11T14:24:32.551Z,16.81
2023-03-11T14:27:07.185Z,19.07
2023-03-11T14:29:40.401Z,19.95
2023-03-11T14:32:30.687Z,19.50
2023-03-11T14:35:02.579Z,20.28
2023-03-11T14:37:34.336Z,19.87
2023-03-11T14:40:39.250Z,20.62
2023-03-11T14:43:11.785Z,21.28
2023-03-11T14:45:43.820Z,20.89
2023-03-11T14:48:22.158Z,19.68
2023-03-11T14:50:56.582Z,20.96
2023-03-11T14:53:43.240Z,20.45
2023-03-11T14:56:24.738Z,20.87
2023-03-11T14:59:07.682Z,21.13
2023-03-11T15:01:42.540Z,20.45
2023-03-11T15:04:36.627Z,20.12
2023-03-11T15:07:08.207Z,20.20
2023-03-11T15:09:41.361Z,20.22
2023-03-11T15:12:34.539Z,20.35
2023-03-11T15:15:25.915Z,19.43
2023-03-11T15:18:01.527Z,20.89
2023-03-11T15:20:37.229Z,22.42
2023-03-11T15:23:21.803Z,20.82
2023-03-11T15:25:53.390Z,20.45
2023-03-11T15:28:29.147Z,20.51
2023-03-11T15:31:22.538Z,22.83
2023-03-11T15:33:54.404Z,23.43
2023-03-11T15:36:34.839Z,23.28
2023-03-11T15:39:11.320Z,25.62
2023-03-11T15:42:02.165Z,27.65
2023-03-11T15:44:41.341Z,28.64
2023-03-11T15:47:15.310Z,29.25
2023-03-11T15:49:47.217Z,30.46
2023-03-11T15:52:19.754Z,31.14
2023-03-11T15:54:55.831Z,31.24
2023-03-11T15:57:29.925Z,31.86
2023-03-11T16:00:02.350Z,32.88
2023-03-11T16:02:33.882Z,33.28
2023-03-11T16:05:13.922Z,33.58
2023-03-11T16:07:46.808Z,34.54
2023-03-11T16:10:22.232Z,34.82
2023-03-11T16:12:53.916Z,36.50
2023-03-11T16:15:31.593Z,37.53
2023-03-11T16:18:09.061Z,38.14
2023-03-11T16:20:44.193Z,38.40
2023-03-11T16:23:27.083Z,38.83
2023-03-11T16:26:02.039Z,39.33
2023-03-11T16:28:33.702Z,38.01
2023-03-11T16:31:05.432Z,39.32
2023-03-11T16:33:40.512Z,38.95
2023-03-11T16:36:12.027Z,39.65
2023-03-11T16:38:47.070Z,40.46
2023-03-11T16:41:18.911Z,40.99
2023-03-11T16:43:50.547Z,40.84
2023-03-11T16:46:22.154Z,41.44
2023-03-11T16:48:53.748Z,40.94
2023-03-11T16:51:25.273Z,42.11
2023-03-11T16:53:57.009Z,42.22
2023-03-11T16:56:28.658Z,42.27
2023-03-11T16:59:01.199Z,41.89
2023-03-11T17:01:33.089Z,41.78
2023-03-11T17:04:07.963Z,41.77
2023-03-11T17:06:40.197Z,41.89
2023-03-11T17:09:11.785Z,42.42
2023-03-11T17:11:43.350Z,42.40
2023-03-11T17:14:16.778Z,42.96
2023-03-11T17:16:48.501Z,43.24
2023-03-11T17:19:20.145Z,42.91
2023-03-11T17:21:51.962Z,42.96
2023-03-11T17:24:23.467Z,42.96
2023-03-11T17:26:55.052Z,43.59
2023-03-11T17:29:26.601Z,44.20
2023-03-11T17:31:58.476Z,43.97
2023-03-11T17:34:30.124Z,44.06
2023-03-11T17:37:01.667Z,44.09
2023-03-11T17:39:33.292Z,43.45
2023-03-11T17:42:05.062Z,43.85
2023-03-11T17:44:50.520Z,43.88
2023-03-11T17:47:25.978Z,45.02
2023-03-11T17:49:57.697Z,44.10
2023-03-11T17:52:29.576Z,44.34
2023-03-11T17:55:01.101Z,45.98
2023-03-11T17:57:44.481Z,45.33
2023-03-11T18:00:17.207Z,45.08
2023-03-11T18:02:51.218Z,44.77
2023-03-11T18:05:23.897Z,45.41
2023-03-11T18:07:55.521Z,45.00
2023-03-11T18:10:27.162Z,45.46
2023-03-11T18:12:58.632Z,45.18
2023-03-11T18:15:30.373Z,45.80
2023-03-11T18:18:01.899Z,45.11
2023-03-11T18:20:33.454Z,45.07
2023-03-11T18:23:05.543Z,45.28
2023-03-11T18:25:37.050Z,45.43
2023-03-11T18:28:08.599Z,45.70
2023-03-11T18:30:40.581Z,45.30
2023-03-11T18:33:13.108Z,45.48
2023-03-11T18:35:44.697Z,47.13
2023-03-11T18:38:16.489Z,45.32
2023-03-11T18:40:48.048Z,45.13
2023-03-11T18:43:19.511Z,45.21
2023-03-11T18:45:51.042Z,45.27
2023-03-11T18:48:22.863Z,44.90
2023-03-11T18:50:55.285Z,44.42
2023-03-11T18:53:26.830Z,45.34
2023-03-11T18:56:00.562Z,46.80
2023-03-11T18:58:32.087Z,45.56
2023-03-11T19:01:15.616Z,45.82
2023-03-11T19:03:53.975Z,45.43
2023-03-11T19:06:28.109Z,45.96
2023-03-11T19:08:59.768Z,46.46
2023-03-11T19:11:31.305Z,46.52
2023-03-11T19:14:03.074Z,46.33
2023-03-11T19:16:34.704Z,46.37
2023-03-11T19:19:06.738Z,46.42
2023-03-11T19:21:38.327Z,46.51
2023-03-11T19:24:11.465Z,47.50
2023-03-11T19:26:45.702Z,46.57
2023-03-11T19:29:19.772Z,45.93
2023-03-11T19:31:51.686Z,46.43
2023-03-11T19:34:23.368Z,46.71
2023-03-11T19:36:57.146Z,47.07
2023-03-11T19:39:28.636Z,47.08
2023-03-11T19:42:00.421Z,47.20
2023-03-11T19:44:32.450Z,47.05
2023-03-11T19:47:04.093Z,46.99
2023-03-11T19:49:35.585Z,46.94
2023-03-11T19:52:11.880Z,46.93
2023-03-11T19:54:43.472Z,46.23
2023-03-11T19:57:18.563Z,46.36
2023-03-11T19:59:50.069Z,46.20
2023-03-11T20:02:22.198Z,45.96
2023-03-11T20:04:53.865Z,46.40
2023-03-11T20:07:25.547Z,45.76
2023-03-11T20:09:57.767Z,46.22
2023-03-11T20:12:29.429Z,46.86
2023-03-11T20:15:01.201Z,46.77
2023-03-11T20:17:32.933Z,46.89
2023-03-11T20:20:06.092Z,46.78
2023-03-11T20:22:38.733Z,47.10
2023-03-11T20:25:11.682Z,47.06
2023-03-11T20:27:43.248Z,47.21
2023-03-11T20:30:21.048Z,46.53
2023-03-11T20:32:54.575Z,46.84
2023-03-11T20:35:26.477Z,46.79
2023-03-11T20:37:59.645Z,47.35
2023-03-11T20:40:31.400Z,47.40
2023-03-11T20:43:03.410Z,47.85
2023-03-11T20:45:37.777Z,47.63
2023-03-11T20:48:09.616Z,47.08
2023-03-11T20:50:41.679Z,47.69
2023-03-11T20:53:13.324Z,48.04
2023-03-11T20:55:45.052Z,48.55
2023-03-11T20:58:18.188Z,48.11
2023-03-11T21:00:49.755Z,48.22
2023-03-11T21:03:21.672Z,48.30
2023-03-11T21:05:53.367Z,48.22
2023-03-11T21:08:25.246Z,49.04
2023-03-11T21:11:03.356Z,48.47
2023-03-11T21:13:36.189Z,49.16
2023-03-11T21:16:13.153Z,48.46
2023-03-11T21:18:49.477Z,48.33
2023-03-11T21:21:21.568Z,49.17
2023-03-11T21:23:54.710Z,49.29
2023-03-11T21:26:26.415Z,49.63
2023-03-11T21:28:58.055Z,50.33
2023-03-11T21:31:30.182Z,49.23
2023-03-11T21:34:04.261Z,49.25
2023-03-11T21:36:36.480Z,49.61
2023-03-11T21:39:09.032Z,50.35
2023-03-11T21:41:41.389Z,49.31
2023-03-11T21:44:12.776Z,49.64
2023-03-11T21:46:45.188Z,49.66
2023-03-11T21:49:19.779Z,49.57
2023-03-11T21:51:52.419Z,50.08
2023-03-11T21:54:25.026Z,49.45
2023-03-11T21:56:56.873Z,50.97
2023-03-11T21:59:29.706Z,50.58
2023-03-11T22:02:03.281Z,50.31
2023-03-11T22:04:35.443Z,50.20
2023-03-11T22:07:07.321Z,50.54
2023-03-11T22:09:38.971Z,51.64
2023-03-11T22:12:10.703Z,51.79
2023-03-11T22:14:42.503Z,51.62
2023-03-11T22:17:14.502Z,51.72
2023-03-11T22:19:46.246Z,51.55
2023-03-11T22:22:17.839Z,52.15
2023-03-11T22:24:49.351Z,51.76
2023-03-11T22:27:20.782Z,51.93
2023-03-11T22:29:52.486Z,51.86
2023-03-11T22:32:24.039Z,51.55
2023-03-11T22:34:55.926Z,51.59
2023-03-11T22:37:28.290Z,52.51
2023-03-11T22:39:59.828Z,52.57
2023-03-11T22:42:31.460Z,52.17
2023-03-11T22:45:04.850Z,53.64
2023-03-11T22:47:36.399Z,52.54
2023-03-11T22:50:08.850Z,53.18
2023-03-11T22:52:40.238Z,53.36
2023-03-11T22:55:11.888Z,53.05
2023-03-11T22:57:43.434Z,53.03
2023-03-11T23:00:21.578Z,52.74
2023-03-11T23:02:55.492Z,53.26
2023-03-11T23:05:27.309Z,53.01
2023-03-11T23:07:58.819Z,53.23
2023-03-11T23:10:30.326Z,53.73
2023-03-11T23:13:02.169Z,53.51
2023-03-11T23:15:33.698Z,54.08
2023-03-11T23:18:05.574Z,53.00
2023-03-11T23:20:39.356Z,52.53
2023-03-11T23:23:12.092Z,53.75
2023-03-11T23:25:43.733Z,54.00
2023-03-11T23:28:15.325Z,54.24
2023-03-11T23:30:46.988Z,54.12
2023-03-11T23:33:18.559Z,55.50
2023-03-11T23:35:50.321Z,55.09
2023-03-11T23:38:21.855Z,55.99
2023-03-11T23:40:53.423Z,55.84
2023-03-11T23:43:25.815Z,55.59
2023-03-11T23:45:57.304Z,55.96
2023-03-11T23:48:29.204Z,55.55
2023-03-11T23:51:00.771Z,56.09
2023-03-11T23:53:32.817Z,55.93
2023-03-11T23:56:17.049Z,56.58
2023-03-11T23:58:48.703Z,56.39
